createdAt,value
2023-05-24T00:00:13.295Z,100.00
2023-05-24T00:02:43.222Z,100.00
2023-05-24T00:05:13.157Z,100.00
2023-05-24T00:07:42.146Z,100.00
2023-05-24T00:10:13.022Z,100.00
2023-05-24T00:12:41.609Z,100.00
2023-05-24T00:15:13.968Z,100.00
2023-05-24T00:17:44.013Z,100.00
2023-05-24T00:20:14.525Z,100.00
2023-05-24T00:22:44.222Z,100.00
2023-05-24T00:25:12.762Z,100.00
2023-05-24T00:27:41.292Z,100.00
2023-05-24T00:30:12.294Z,100.00
2023-05-24T00:32:41.928Z,100.00
2023-05-24T00:35:11.625Z,100.00
2023-05-24T00:37:45.209Z,100.00
2023-05-24T00:40:15.655Z,100.00
2023-05-24T00:42:44.103Z,100.00
2023-05-24T00:45:15.166Z,100.00
2023-05-24T00:47:45.058Z,100.00
2023-05-24T00:50:17.357Z,100.00
2023-05-24T00:52:47.396Z,100.00
2023-05-24T00:55:16.767Z,100.00
2023-05-24T00:57:46.490Z,100.00
2023-05-24T01:00:17.149Z,100.00
2023-05-24T01:02:48.878Z,100.00
2023-05-24T01:05:18.165Z,100.00
2023-05-24T01:08:13.063Z,100.00
2023-05-24T01:10:52.899Z,100.00
2023-05-24T01:13:32.720Z,100.00
2023-05-24T01:16:11.403Z,100.00
2023-05-24T01:18:45.760Z,100.00
2023-05-24T01:21:39.858Z,100.00
2023-05-24T01:24:26.961Z,100.00
2023-05-24T01:27:08.672Z,100.00
2023-05-24T01:29:39.124Z,100.00
2023-05-24T01:32:09.873Z,100.00
2023-05-24T01:34:38.886Z,100.00
2023-05-24T01:37:08.326Z,100.00
2023-05-24T01:39:37.884Z,100.00
2023-05-24T01:42:20.665Z,100.00
2023-05-24T01:45:06.476Z,100.00
2023-05-24T01:47:59.828Z,100.00
2023-05-24T01:50:34.660Z,100.00
2023-05-24T01:53:10.258Z,100.00
2023-05-24T01:55:40.408Z,100.00
2023-05-24T01:58:14.938Z,100.00
2023-05-24T02:00:46.246Z,100.00
2023-05-24T02:03:17.115Z,100.00
2023-05-24T02:05:47.060Z,100.00
2023-05-24T02:08:16.170Z,100.00
2023-05-24T02:10:44.819Z,100.00
2023-05-24T02:13:17.171Z,100.00
2023-05-24T02:15:47.976Z,100.00
2023-05-24T02:18:18.622Z,100.00
2023-05-24T02:20:47.441Z,100.00
2023-05-24T02:23:16.520Z,100.00
2023-05-24T02:25:46.013Z,100.00
2023-05-24T02:28:16.420Z,100.00
2023-05-24T02:30:45.288Z,100.00
2023-05-24T02:33:14.138Z,100.00
2023-05-24T02:35:43.886Z,100.00
2023-05-24T02:38:12.438Z,100.00
2023-05-24T02:40:42.168Z,100.00
2023-05-24T02:43:11.309Z,100.00
2023-05-24T02:45:41.067Z,100.00
2023-05-24T02:48:11.178Z,100.00
2023-05-24T02:50:41.646Z,100.00
2023-05-24T02:53:10.521Z,100.00
2023-05-24T02:55:39.252Z,100.00
2023-05-24T02:58:09.161Z,100.00
2023-05-24T03:00:38.421Z,100.00
2023-05-24T03:03:08.442Z,100.00
2023-05-24T03:05:38.527Z,100.00
2023-05-24T03:08:08.031Z,100.00
2023-05-24T03:10:38.629Z,100.00
2023-05-24T03:13:07.086Z,100.00
2023-05-24T03:15:36.238Z,100.00
2023-05-24T03:18:04.981Z,100.00
2023-05-24T03:20:35.963Z,100.00
2023-05-24T03:23:06.409Z,100.00
2023-05-24T03:25:35.152Z,100.00
2023-05-24T03:28:04.931Z,100.00
2023-05-24T03:30:39.234Z,100.00
2023-05-24T03:33:08.863Z,100.00
2023-05-24T03:35:39.267Z,100.00
2023-05-24T03:38:08.290Z,100.00
2023-05-24T03:40:37.991Z,100.00
2023-05-24T03:43:06.547Z,100.00
2023-05-24T03:45:39.757Z,100.00
2023-05-24T03:48:08.646Z,100.00
2023-05-24T03:50:38.682Z,100.00
2023-05-24T03:53:07.704Z,100.00
2023-05-24T03:55:36.818Z,100.00
2023-05-24T03:58:05.370Z,100.00
2023-05-24T04:00:34.361Z,100.00
2023-05-24T04:03:03.532Z,100.00
2023-05-24T04:05:32.087Z,100.00
2023-05-24T04:08:03.016Z,100.00
2023-05-24T04:10:31.799Z,100.00
2023-05-24T04:13:01.751Z,100.00
2023-05-24T04:15:31.061Z,100.00
2023-05-24T04:18:01.283Z,100.00
2023-05-24T04:20:30.132Z,100.00
2023-05-24T04:22:59.388Z,100.00
2023-05-24T04:25:30.257Z,100.00
2023-05-24T04:27:58.734Z,100.00
2023-05-24T04:30:30.559Z,100.00
2023-05-24T04:32:59.276Z,100.00
2023-05-24T04:35:28.261Z,100.00
2023-05-24T04:37:57.679Z,100.00
2023-05-24T04:40:28.166Z,100.00
2023-05-24T04:42:56.732Z,100.00
2023-05-24T04:45:25.967Z,100.00
2023-05-24T04:47:55.632Z,100.00
2023-05-24T04:50:24.867Z,100.00
2023-05-24T04:52:53.510Z,100.00
2023-05-24T04:55:23.346Z,100.00
2023-05-24T04:57:53.902Z,100.00
2023-05-24T05:00:23.633Z,100.00
2023-05-24T05:02:53.082Z,100.00
2023-05-24T05:05:22.694Z,100.00
2023-05-24T05:07:51.308Z,100.00
2023-05-24T05:10:21.788Z,100.00
2023-05-24T05:12:53.076Z,100.00
2023-05-24T05:15:26.016Z,100.00
2023-05-24T05:17:54.631Z,100.00
2023-05-24T05:20:26.152Z,100.00
2023-05-24T05:22:55.624Z,100.00
2023-05-24T05:25:24.254Z,100.00
2023-05-24T05:27:54.188Z,100.00
2023-05-24T05:30:23.856Z,100.00
2023-05-24T05:32:52.855Z,100.00
2023-05-24T05:35:21.694Z,100.00
2023-05-24T05:37:50.907Z,100.00
2023-05-24T05:40:19.641Z,100.00
2023-05-24T05:42:49.188Z,100.00
2023-05-24T05:45:19.192Z,100.00
2023-05-24T05:47:48.544Z,100.00
2023-05-24T05:50:17.900Z,100.00
2023-05-24T05:52:46.413Z,100.00
2023-05-24T05:55:15.464Z,100.00
2023-05-24T05:57:44.439Z,100.00
2023-05-24T06:00:15.108Z,100.00
2023-05-24T06:02:45.328Z,100.00
2023-05-24T06:05:16.244Z,100.00
2023-05-24T06:07:45.900Z,100.00
2023-05-24T06:10:14.756Z,100.00
2023-05-24T06:12:43.283Z,100.00
2023-05-24T06:15:13.707Z,100.00
2023-05-24T06:17:44.017Z,100.00
2023-05-24T06:20:16.990Z,100.00
2023-05-24T06:22:45.730Z,100.00
2023-05-24T06:25:19.160Z,100.00
2023-05-24T06:27:47.703Z,100.00
2023-05-24T06:30:16.492Z,100.00
2023-05-24T06:32:45.106Z,100.00
2023-05-24T06:35:15.068Z,100.00
2023-05-24T06:37:43.626Z,100.00
2023-05-24T06:40:13.523Z,100.00
2023-05-24T06:42:42.028Z,100.00
2023-05-24T06:45:12.620Z,100.00
2023-05-24T06:47:41.750Z,100.00
2023-05-24T06:50:10.986Z,100.00
2023-05-24T06:52:41.457Z,99.87
2023-05-24T06:55:12.013Z,100.00
2023-05-24T06:57:40.670Z,100.00
2023-05-24T07:00:12.639Z,100.00
2023-05-24T07:02:42.219Z,100.00
2023-05-24T07:05:12.709Z,99.41
2023-05-24T07:07:45.381Z,98.59
2023-05-24T07:10:14.506Z,96.27
2023-05-24T07:12:43.734Z,97.50
2023-05-24T07:15:12.304Z,99.13
2023-05-24T07:17:41.073Z,96.30
2023-05-24T07:20:11.945Z,95.67
2023-05-24T07:22:44.696Z,97.70
2023-05-24T07:25:13.226Z,98.19
2023-05-24T07:27:42.593Z,97.49
2023-05-24T07:30:23.540Z,92.37
2023-05-24T07:32:59.399Z,91.85
2023-05-24T07:35:29.552Z,91.41
2023-05-24T07:38:00.149Z,90.95
2023-05-24T07:40:29.043Z,92.77
2023-05-24T07:42:58.139Z,92.72
2023-05-24T07:45:27.558Z,91.28
2023-05-24T07:47:57.572Z,93.62
2023-05-24T07:50:26.576Z,95.10
2023-05-24T07:52:56.743Z,92.00
2023-05-24T07:55:28.087Z,93.89
2023-05-24T07:57:56.774Z,91.72
2023-05-24T08:00:26.850Z,89.99
2023-05-24T08:02:56.674Z,87.86
2023-05-24T08:05:25.681Z,84.50
2023-05-24T08:07:55.869Z,85.18
2023-05-24T08:10:26.380Z,85.98
2023-05-24T08:12:56.230Z,82.62
2023-05-24T08:15:25.719Z,81.06
2023-05-24T08:17:55.389Z,81.10
2023-05-24T08:20:24.074Z,79.07
2023-05-24T08:22:53.673Z,80.17
2023-05-24T08:25:22.189Z,80.89
2023-05-24T08:27:53.360Z,76.85
2023-05-24T08:30:22.651Z,76.51
2023-05-24T08:32:51.884Z,75.06
2023-05-24T08:35:21.910Z,76.91
2023-05-24T08:37:51.208Z,77.52
2023-05-24T08:40:20.749Z,78.16
2023-05-24T08:42:54.158Z,79.33
2023-05-24T08:45:24.028Z,79.23
2023-05-24T08:47:53.538Z,75.82
2023-05-24T08:50:23.122Z,76.11
2023-05-24T08:52:53.193Z,77.09
2023-05-24T08:55:24.019Z,79.79
2023-05-24T08:57:56.499Z,80.18
2023-05-24T09:00:26.604Z,80.48
2023-05-24T09:02:55.666Z,74.18
2023-05-24T09:05:26.820Z,74.08
2023-05-24T09:07:57.996Z,76.17
2023-05-24T09:10:38.016Z,73.61
2023-05-24T09:13:18.420Z,76.84
2023-05-24T09:15:47.708Z,72.99
2023-05-24T09:18:17.990Z,72.13
2023-05-24T09:20:47.295Z,74.82
2023-05-24T09:23:17.712Z,72.99
2023-05-24T09:25:47.320Z,74.93
2023-05-24T09:28:21.102Z,77.03
2023-05-24T09:31:03.354Z,78.29
2023-05-24T09:33:34.107Z,75.86
2023-05-24T09:36:04.635Z,77.01
2023-05-24T09:38:33.202Z,77.00
2023-05-24T09:41:07.172Z,72.99
2023-05-24T09:43:49.554Z,73.53
2023-05-24T09:46:20.264Z,68.99
2023-05-24T09:48:59.283Z,71.48
2023-05-24T09:51:28.585Z,71.85
2023-05-24T09:54:01.728Z,70.36
2023-05-24T09:56:33.976Z,70.30
2023-05-24T09:59:10.057Z,73.15
2023-05-24T10:01:40.581Z,72.50
2023-05-24T10:04:10.435Z,70.84
2023-05-24T10:06:40.829Z,70.52
2023-05-24T10:09:10.106Z,68.08
2023-05-24T10:11:38.735Z,67.68
2023-05-24T10:14:11.603Z,66.06
2023-05-24T10:16:40.392Z,67.31
2023-05-24T10:19:09.149Z,68.46
2023-05-24T10:21:43.386Z,67.74
2023-05-24T10:24:18.643Z,68.13
2023-05-24T10:26:50.248Z,67.50
2023-05-24T10:29:34.873Z,63.54
2023-05-24T10:32:06.256Z,65.11
2023-05-24T10:34:36.556Z,65.89
2023-05-24T10:37:07.169Z,66.50
2023-05-24T10:39:35.827Z,68.42
2023-05-24T10:42:09.538Z,66.10
2023-05-24T10:44:41.194Z,64.27
2023-05-24T10:47:12.980Z,61.74
2023-05-24T10:49:51.431Z,61.12
2023-05-24T10:52:20.848Z,62.84
2023-05-24T10:55:08.866Z,59.74
2023-05-24T10:57:38.442Z,63.53
2023-05-24T11:03:02.665Z,64.92
2023-05-24T11:05:37.139Z,66.91
2023-05-24T11:08:09.528Z,64.59
2023-05-24T11:10:38.558Z,65.40
2023-05-24T11:13:09.959Z,66.46
2023-05-24T11:15:40.010Z,64.88
2023-05-24T11:18:20.381Z,67.88
2023-05-24T11:20:51.037Z,66.98
2023-05-24T11:23:20.613Z,72.70
2023-05-24T11:25:49.969Z,73.02
2023-05-24T11:28:19.704Z,71.91
2023-05-24T11:30:50.767Z,69.17
2023-05-24T11:33:22.694Z,71.03
2023-05-24T11:35:54.562Z,71.91
2023-05-24T11:38:25.236Z,71.21
2023-05-24T11:40:54.492Z,70.22
2023-05-24T11:43:23.449Z,69.87
2023-05-24T11:45:54.821Z,72.38
2023-05-24T11:48:23.987Z,70.22
2023-05-24T11:50:53.219Z,71.13
2023-05-24T11:53:23.168Z,69.70
2023-05-24T11:55:51.801Z,69.50
2023-05-24T11:58:26.224Z,68.67
2023-05-24T12:00:57.158Z,71.73
2023-05-24T12:03:27.151Z,71.63
2023-05-24T12:05:59.755Z,70.85
2023-05-24T12:08:28.359Z,70.82
2023-05-24T12:10:57.059Z,68.16
2023-05-24T12:13:27.424Z,68.11
2023-05-24T12:15:58.294Z,70.68
2023-05-24T12:18:28.462Z,71.01
2023-05-24T12:20:57.763Z,68.80
2023-05-24T12:23:29.710Z,69.96
2023-05-24T12:26:03.428Z,69.27
2023-05-24T12:28:39.938Z,68.57
2023-05-24T12:31:11.179Z,68.06
2023-05-24T12:33:40.151Z,67.96
2023-05-24T12:36:11.310Z,68.51
2023-05-24T12:38:41.061Z,66.71
2023-05-24T12:41:13.583Z,68.08
2023-05-24T12:43:44.768Z,67.21
2023-05-24T12:46:14.754Z,68.05
2023-05-24T12:48:43.355Z,69.26
2023-05-24T12:51:12.414Z,68.06
2023-05-24T12:53:41.604Z,66.81
2023-05-24T12:56:10.213Z,66.50
2023-05-24T12:58:42.235Z,65.88
2023-05-24T13:01:10.793Z,65.43
2023-05-24T13:03:40.671Z,66.83
2023-05-24T13:06:09.801Z,67.44
2023-05-24T13:08:40.755Z,67.54
2023-05-24T13:11:09.497Z,65.62
2023-05-24T13:13:40.010Z,68.81
2023-05-24T13:16:11.195Z,67.59
2023-05-24T13:18:41.508Z,68.17
2023-05-24T13:21:12.108Z,67.37
2023-05-24T13:23:43.270Z,66.01
2023-05-24T13:26:13.050Z,68.49
2023-05-24T13:28:58.611Z,69.82
2023-05-24T13:31:31.233Z,68.40
2023-05-24T13:34:01.939Z,67.91
2023-05-24T13:36:30.504Z,68.53
2023-05-24T13:41:33.047Z,68.30
2023-05-24T13:44:01.693Z,68.48
2023-05-24T13:46:30.665Z,67.12
2023-05-24T13:49:01.293Z,69.14
2023-05-24T13:51:30.781Z,69.08
2023-05-24T13:53:59.823Z,68.62
2023-05-24T13:56:33.404Z,69.05
2023-05-24T13:59:03.641Z,66.65
2023-05-24T14:01:33.385Z,66.67
2023-05-24T14:04:06.543Z,68.97
2023-05-24T14:06:37.689Z,68.38
2023-05-24T14:09:08.391Z,69.53
2023-05-24T14:11:38.213Z,68.69
2023-05-24T14:14:57.811Z,69.71
2023-05-24T14:16:56.307Z,72.39
2023-05-24T14:19:26.330Z,71.27
2023-05-24T14:21:54.947Z,69.79
2023-05-24T14:24:24.916Z,69.90
2023-05-24T14:26:55.162Z,71.80
2023-05-24T14:29:23.648Z,71.47
2023-05-24T14:31:52.281Z,68.86
2023-05-24T14:34:21.643Z,70.38
2023-05-24T14:36:51.939Z,69.67
2023-05-24T14:39:21.794Z,69.96
2023-05-24T14:41:50.251Z,71.26
2023-05-24T14:44:19.312Z,70.80
2023-05-24T14:46:48.297Z,71.86
2023-05-24T14:49:17.453Z,72.45
2023-05-24T14:51:49.538Z,72.42
2023-05-24T14:54:19.560Z,73.26
2023-05-24T14:56:48.573Z,72.46
2023-05-24T14:59:17.277Z,71.58
2023-05-24T15:01:45.915Z,72.32
2023-05-24T15:04:14.432Z,72.39
2023-05-24T15:06:43.516Z,71.40
2023-05-24T15:09:13.451Z,71.75
2023-05-24T15:11:43.304Z,69.01
2023-05-24T15:14:12.383Z,68.18
2023-05-24T15:16:41.476Z,67.89
2023-05-24T15:19:11.519Z,68.50
2023-05-24T15:21:40.580Z,70.08
2023-05-24T15:24:10.132Z,69.68
2023-05-24T15:26:38.625Z,69.32
2023-05-24T15:29:08.558Z,69.32
2023-05-24T15:31:37.141Z,68.40
2023-05-24T15:34:06.403Z,69.05
2023-05-24T15:36:35.023Z,71.21
2023-05-24T15:39:03.652Z,71.08
2023-05-24T15:41:32.187Z,70.82
2023-05-24T15:44:08.343Z,73.01
2023-05-24T15:46:38.460Z,74.82
2023-05-24T15:49:07.152Z,74.87
2023-05-24T15:54:08.476Z,75.35
2023-05-24T15:56:37.163Z,76.66
2023-05-24T15:59:05.755Z,77.86
2023-05-24T16:01:34.897Z,76.81
2023-05-24T16:04:05.120Z,78.67
2023-05-24T16:06:33.616Z,77.99
2023-05-24T16:09:02.151Z,77.09
2023-05-24T16:11:31.085Z,79.46
2023-05-24T16:13:59.657Z,76.59
2023-05-24T16:16:29.319Z,75.15
2023-05-24T16:18:57.867Z,78.10
2023-05-24T16:21:28.919Z,77.89
2023-05-24T16:23:58.740Z,76.79
2023-05-24T16:26:31.376Z,76.61
2023-05-24T16:29:00.305Z,80.15
2023-05-24T16:31:29.046Z,78.03
2023-05-24T16:33:58.860Z,78.96
2023-05-24T16:36:28.753Z,79.33
2023-05-24T16:38:57.211Z,78.58
2023-05-24T16:41:27.182Z,78.51
2023-05-24T16:43:56.645Z,76.07
2023-05-24T16:46:25.161Z,75.89
2023-05-24T16:48:53.707Z,74.75
2023-05-24T16:51:25.396Z,75.54
2023-05-24T16:53:56.050Z,75.07
2023-05-24T16:56:25.429Z,75.39
2023-05-24T16:58:54.284Z,75.11
2023-05-24T17:01:23.382Z,74.46
2023-05-24T17:03:53.005Z,75.34
2023-05-24T17:06:21.968Z,75.41
2023-05-24T17:08:50.941Z,76.71
2023-05-24T17:11:21.049Z,77.50
2023-05-24T17:13:51.104Z,77.07
2023-05-24T17:16:22.083Z,77.60
2023-05-24T17:18:51.248Z,77.49
2023-05-24T17:21:21.286Z,78.01
2023-05-24T17:23:50.181Z,78.84
2023-05-24T17:26:21.965Z,79.46
2023-05-24T17:28:50.912Z,79.72
2023-05-24T17:31:19.632Z,79.14
2023-05-24T17:33:48.205Z,79.73
2023-05-24T17:36:17.180Z,80.27
2023-05-24T17:38:45.775Z,78.97
2023-05-24T17:41:14.661Z,78.76
2023-05-24T17:43:44.490Z,79.28
2023-05-24T17:46:13.595Z,81.09
2023-05-24T17:48:42.912Z,82.04
2023-05-24T17:51:12.807Z,82.98
2023-05-24T17:53:43.663Z,81.21
2023-05-24T17:56:13.338Z,81.34
2023-05-24T17:58:44.932Z,80.47
2023-05-24T18:01:15.462Z,80.85
2023-05-24T18:03:44.603Z,81.38
2023-05-24T18:06:13.463Z,82.53
2023-05-24T18:08:43.982Z,82.57
2023-05-24T18:11:13.499Z,83.28
2023-05-24T18:13:44.760Z,83.13
2023-05-24T18:16:14.491Z,82.13
2023-05-24T18:18:43.993Z,82.00
2023-05-24T18:21:13.188Z,82.45
2023-05-24T18:23:42.577Z,85.37
2023-05-24T18:26:15.453Z,86.23
2023-05-24T18:28:45.276Z,84.75
2023-05-24T18:31:15.387Z,86.65
2023-05-24T18:33:44.174Z,85.18
2023-05-24T18:36:13.839Z,84.74
2023-05-24T18:38:42.743Z,85.52
2023-05-24T18:41:12.254Z,86.05
2023-05-24T18:43:42.824Z,86.64
2023-05-24T18:46:14.988Z,84.76
2023-05-24T18:48:44.568Z,86.04
2023-05-24T18:51:13.366Z,86.15
2023-05-24T18:53:42.015Z,87.07
2023-05-24T18:56:10.741Z,88.21
2023-05-24T18:58:39.487Z,88.05
2023-05-24T19:01:09.657Z,88.02
2023-05-24T19:03:41.772Z,89.66
2023-05-24T19:06:10.309Z,89.51
2023-05-24T19:08:38.903Z,89.92
2023-05-24T19:11:07.955Z,90.17
2023-05-24T19:13:36.907Z,90.55
2023-05-24T19:16:05.567Z,90.76
2023-05-24T19:18:34.228Z,91.69
2023-05-24T19:21:04.915Z,92.06
2023-05-24T19:23:33.417Z,92.50
2023-05-24T19:26:01.892Z,93.77
2023-05-24T19:28:33.849Z,94.13
2023-05-24T19:31:02.648Z,94.40
2023-05-24T19:33:31.799Z,94.53
2023-05-24T19:36:00.397Z,95.21
2023-05-24T19:38:31.320Z,96.67
2023-05-24T19:40:59.860Z,98.45
2023-05-24T19:43:28.915Z,98.99
2023-05-24T19:45:58.005Z,99.71
2023-05-24T19:48:27.228Z,99.80
2023-05-24T19:50:56.338Z,99.72
2023-05-24T19:53:25.374Z,99.82
2023-05-24T19:55:55.659Z,100.00
2023-05-24T19:58:25.899Z,100.00
2023-05-24T20:00:54.405Z,100.00
2023-05-24T20:03:23.587Z,100.00
2023-05-24T20:05:52.883Z,100.00
2023-05-24T20:08:21.853Z,100.00
2023-05-24T20:10:51.162Z,100.00
2023-05-24T20:13:22.070Z,100.00
2023-05-24T20:15:51.223Z,100.00
2023-05-24T20:18:20.898Z,100.00
2023-05-24T20:20:52.723Z,100.00
2023-05-24T20:23:21.806Z,100.00
2023-05-24T20:25:50.305Z,100.00
2023-05-24T20:28:30.221Z,100.00
2023-05-24T20:31:00.585Z,100.00
2023-05-24T20:33:29.583Z,100.00
2023-05-24T20:35:59.260Z,100.00
2023-05-24T20:38:28.414Z,100.00
2023-05-24T20:40:56.876Z,100.00
2023-05-24T20:43:27.155Z,100.00
2023-05-24T20:45:56.650Z,100.00
2023-05-24T20:48:25.740Z,100.00
2023-05-24T20:50:54.295Z,100.00
2023-05-24T20:53:22.796Z,100.00
2023-05-24T20:55:51.686Z,100.00
2023-05-24T20:58:21.377Z,100.00
2023-05-24T21:00:51.842Z,100.00
2023-05-24T21:03:20.862Z,100.00
2023-05-24T21:05:49.563Z,100.00
2023-05-24T21:08:18.087Z,100.00
2023-05-24T21:10:47.983Z,100.00
2023-05-24T21:13:16.559Z,100.00
2023-05-24T21:15:45.699Z,100.00
2023-05-24T21:18:16.610Z,100.00
2023-05-24T21:20:45.590Z,100.00
2023-05-24T21:23:14.215Z,100.00
2023-05-24T21:25:43.408Z,100.00
2023-05-24T21:28:12.261Z,100.00
2023-05-24T21:30:41.168Z,100.00
2023-05-24T21:33:14.029Z,100.00
2023-05-24T21:35:44.446Z,100.00
2023-05-24T21:38:13.452Z,100.00
2023-05-24T21:40:42.018Z,100.00
2023-05-24T21:43:12.468Z,100.00
2023-05-24T21:45:41.150Z,100.00
2023-05-24T21:48:10.501Z,100.00
2023-05-24T21:50:40.478Z,100.00
2023-05-24T21:53:11.066Z,100.00
2023-05-24T21:55:40.094Z,100.00
2023-05-24T21:58:08.955Z,100.00
2023-05-24T22:00:37.559Z,100.00
2023-05-24T22:03:06.388Z,100.00
2023-05-24T22:05:35.326Z,100.00
2023-05-24T22:08:04.201Z,100.00
2023-05-24T22:10:34.648Z,100.00
2023-05-24T22:13:03.388Z,100.00
2023-05-24T22:15:32.541Z,100.00
2023-05-24T22:18:02.417Z,100.00
2023-05-24T22:20:32.056Z,100.00
2023-05-24T22:23:01.216Z,100.00
2023-05-24T22:25:30.312Z,100.00
2023-05-24T22:28:00.316Z,100.00
2023-05-24T22:30:30.305Z,100.00
2023-05-24T22:32:59.241Z,100.00
2023-05-24T22:35:28.482Z,100.00
2023-05-24T22:37:57.145Z,100.00
2023-05-24T22:40:25.776Z,100.00
2023-05-24T22:42:55.783Z,100.00
2023-05-24T22:45:25.889Z,100.00
2023-05-24T22:47:58.472Z,100.00
2023-05-24T22:50:27.893Z,100.00
2023-05-24T22:52:56.820Z,100.00
2023-05-24T22:55:26.246Z,100.00
2023-05-24T22:57:55.319Z,100.00
2023-05-24T23:00:26.574Z,100.00
2023-05-24T23:02:56.060Z,100.00
2023-05-24T23:05:24.563Z,100.00
2023-05-24T23:07:55.101Z,100.00
2023-05-24T23:10:24.757Z,100.00
2023-05-24T23:12:53.701Z,100.00
2023-05-24T23:15:22.203Z,100.00
2023-05-24T23:17:52.861Z,100.00
2023-05-24T23:20:21.633Z,100.00
2023-05-24T23:22:50.175Z,100.00
2023-05-24T23:25:19.150Z,100.00
2023-05-24T23:27:47.628Z,100.00
2023-05-24T23:30:17.034Z,100.00
2023-05-24T23:32:46.433Z,100.00
2023-05-24T23:35:16.954Z,100.00
2023-05-24T23:37:46.556Z,100.00
2023-05-24T23:40:15.561Z,100.00
2023-05-24T23:42:44.753Z,100.00
2023-05-24T23:45:15.859Z,100.00
2023-05-24T23:47:45.851Z,100.00
2023-05-24T23:50:17.543Z,100.00
2023-05-24T23:52:48.289Z,100.00
2023-05-24T23:55:17.948Z,100.00
2023-05-24T23:57:47.633Z,100.00
